createdAt,value
2017-08-21T00:00:23.363Z,49.69
2017-08-21T00:02:50.904Z,49.49
2017-08-21T00:05:18.462Z,49.49
2017-08-21T00:07:46.033Z,49.52
2017-08-21T00:10:13.548Z,49.72
2017-08-21T00:12:41.112Z,49.83
2017-08-21T00:15:08.627Z,49.71
2017-08-21T00:17:36.145Z,49.92
2017-08-21T00:20:03.700Z,50.07
2017-08-21T00:22:31.213Z,49.87
2017-08-21T00:24:58.767Z,49.85
2017-08-21T00:27:26.291Z,49.94
2017-08-21T00:29:53.857Z,49.86
2017-08-21T00:32:21.377Z,49.82
2017-08-21T00:34:48.897Z,49.99
2017-08-21T00:37:16.533Z,49.89
2017-08-21T00:39:44.054Z,49.84
2017-08-21T00:42:11.595Z,50.00
2017-08-21T00:44:39.108Z,49.80
2017-08-21T00:47:06.678Z,50.00
2017-08-21T00:49:34.192Z,50.09
2017-08-21T00:52:01.702Z,50.23
2017-08-21T00:54:29.281Z,50.22
2017-08-21T00:56:56.798Z,50.48
2017-08-21T00:59:24.342Z,50.56
2017-08-21T01:01:51.864Z,50.64
2017-08-21T01:04:19.434Z,50.83
2017-08-21T01:06:46.983Z,50.78
2017-08-21T01:09:14.538Z,50.86
2017-08-21T01:11:42.093Z,50.88
2017-08-21T01:14:09.626Z,50.97
2017-08-21T01:16:37.175Z,51.08
2017-08-21T01:19:04.701Z,51.30
2017-08-21T01:21:32.336Z,51.29
2017-08-21T01:23:59.896Z,51.51
2017-08-21T01:26:27.409Z,51.56
2017-08-21T01:28:54.963Z,51.68
2017-08-21T01:31:22.575Z,51.83
2017-08-21T01:33:50.122Z,51.79
2017-08-21T01:36:17.639Z,51.91
2017-08-21T01:38:45.233Z,52.04
2017-08-21T01:41:12.864Z,52.12
2017-08-21T01:43:40.385Z,52.16
2017-08-21T01:46:08.037Z,52.23
2017-08-21T01:48:35.561Z,52.22
2017-08-21T01:51:03.122Z,52.27
2017-08-21T01:53:30.641Z,52.17
2017-08-21T01:55:58.377Z,52.15
2017-08-21T01:58:25.911Z,52.10
2017-08-21T02:00:53.431Z,52.02
2017-08-21T02:03:20.977Z,52.16
2017-08-21T02:05:48.490Z,52.32
2017-08-21T02:08:16.053Z,52.55
2017-08-21T02:10:43.633Z,52.49
2017-08-21T02:13:11.201Z,52.40
2017-08-21T02:15:38.710Z,52.43
2017-08-21T02:18:06.232Z,52.52
2017-08-21T02:20:33.779Z,52.47
2017-08-21T02:23:01.297Z,52.39
2017-08-21T02:25:28.851Z,52.34
2017-08-21T02:27:56.449Z,52.32
2017-08-21T02:30:24.017Z,52.49
2017-08-21T02:32:51.543Z,52.36
2017-08-21T02:35:19.060Z,52.26
2017-08-21T02:37:46.606Z,52.39
2017-08-21T02:40:14.142Z,52.41
2017-08-21T02:42:41.698Z,52.56
2017-08-21T02:45:09.264Z,52.60
2017-08-21T02:47:36.821Z,52.68
2017-08-21T02:50:04.338Z,52.91
2017-08-21T02:52:31.866Z,53.00
2017-08-21T02:54:59.426Z,52.99
2017-08-21T02:57:26.942Z,52.85
2017-08-21T02:59:54.502Z,52.84
2017-08-21T03:02:22.031Z,52.79
2017-08-21T03:04:49.547Z,52.93
2017-08-21T03:07:17.086Z,52.91
2017-08-21T03:09:44.601Z,52.73
2017-08-21T03:12:12.170Z,52.83
2017-08-21T03:14:39.699Z,52.82
2017-08-21T03:17:07.211Z,53.03
2017-08-21T03:19:34.774Z,53.08
2017-08-21T03:22:02.342Z,53.15
2017-08-21T03:24:29.903Z,53.16
2017-08-21T03:26:57.471Z,53.15
2017-08-21T03:29:25.046Z,53.39
2017-08-21T03:31:52.566Z,53.40
2017-08-21T03:34:20.145Z,53.40
2017-08-21T03:36:47.757Z,53.32
2017-08-21T03:39:15.282Z,53.38
2017-08-21T03:41:42.841Z,53.40
2017-08-21T03:44:10.365Z,53.65
2017-08-21T03:46:37.998Z,53.66
2017-08-21T03:49:05.517Z,53.87
2017-08-21T03:51:33.038Z,54.05
2017-08-21T03:54:00.593Z,53.91
2017-08-21T03:56:28.109Z,53.80
2017-08-21T03:58:55.670Z,53.77
2017-08-21T04:01:23.185Z,53.74
2017-08-21T04:03:50.824Z,53.89
2017-08-21T04:06:18.396Z,53.95
2017-08-21T04:08:45.909Z,54.12
2017-08-21T04:11:13.474Z,54.22
2017-08-21T04:13:41.042Z,54.25
2017-08-21T04:16:08.608Z,54.15
2017-08-21T04:18:36.159Z,54.23
2017-08-21T04:21:03.675Z,54.22
2017-08-21T04:23:31.256Z,54.15
2017-08-21T04:25:58.789Z,54.15
2017-08-21T04:28:26.357Z,54.11
2017-08-21T04:30:53.961Z,53.91
2017-08-21T04:33:21.477Z,54.08
2017-08-21T04:35:49.056Z,54.21
2017-08-21T04:38:16.639Z,54.35
2017-08-21T04:40:44.197Z,54.34
2017-08-21T04:43:11.709Z,54.04
2017-08-21T04:45:39.278Z,53.17
2017-08-21T04:48:06.799Z,53.38
2017-08-21T04:50:34.322Z,53.53
2017-08-21T04:53:01.975Z,53.51
2017-08-21T04:55:29.497Z,53.30
2017-08-21T04:57:57.049Z,53.50
2017-08-21T05:00:24.597Z,54.44
2017-08-21T05:02:52.213Z,54.58
2017-08-21T05:05:19.742Z,54.67
2017-08-21T05:07:47.261Z,54.87
2017-08-21T05:10:14.832Z,55.53
2017-08-21T05:12:42.373Z,56.03
2017-08-21T05:15:09.933Z,56.47
2017-08-21T05:17:37.456Z,56.27
2017-08-21T05:20:05.021Z,56.21
2017-08-21T05:22:32.536Z,56.29
2017-08-21T05:25:00.058Z,56.23
2017-08-21T05:27:27.618Z,55.88
2017-08-21T05:29:55.137Z,56.06
2017-08-21T05:32:22.685Z,56.20
2017-08-21T05:34:50.211Z,56.19
2017-08-21T05:37:17.783Z,56.14
2017-08-21T05:39:45.377Z,56.17
2017-08-21T05:42:12.894Z,56.12
2017-08-21T05:44:40.462Z,56.02
2017-08-21T05:47:08.083Z,55.78
2017-08-21T05:49:35.633Z,55.77
2017-08-21T05:52:04.780Z,55.73
2017-08-21T05:54:32.962Z,55.65
2017-08-21T05:57:00.880Z,55.67
2017-08-21T05:59:28.410Z,55.56
2017-08-21T06:01:55.964Z,55.70
2017-08-21T06:04:23.560Z,55.54
2017-08-21T06:06:51.121Z,55.63
2017-08-21T06:09:18.633Z,55.51
2017-08-21T06:11:46.201Z,55.45
2017-08-21T06:14:13.729Z,55.58
2017-08-21T06:16:41.248Z,55.46
2017-08-21T06:19:08.806Z,55.37
2017-08-21T06:21:36.321Z,55.55
2017-08-21T06:24:03.871Z,55.47
2017-08-21T06:26:31.430Z,55.52
2017-08-21T06:28:59.007Z,55.44
2017-08-21T06:31:26.521Z,55.26
2017-08-21T06:33:54.048Z,55.48
2017-08-21T06:36:21.610Z,55.47
2017-08-21T06:38:49.130Z,55.48
2017-08-21T06:41:16.682Z,55.39
2017-08-21T06:43:44.212Z,55.45
2017-08-21T06:46:11.742Z,55.49
2017-08-21T06:48:39.295Z,55.36
2017-08-21T06:51:06.821Z,55.53
2017-08-21T06:53:34.371Z,55.50
2017-08-21T06:56:01.894Z,55.44
2017-08-21T06:58:29.513Z,55.55
2017-08-21T07:00:57.040Z,55.48
2017-08-21T07:03:24.570Z,55.34
2017-08-21T07:05:52.116Z,55.51
2017-08-21T07:08:19.634Z,55.45
2017-08-21T07:10:47.181Z,55.57
2017-08-21T07:13:14.696Z,55.44
2017-08-21T07:15:42.245Z,55.23
2017-08-21T07:18:09.758Z,55.37
2017-08-21T07:20:37.337Z,55.46
2017-08-21T07:23:04.857Z,55.32
2017-08-21T07:25:32.373Z,55.43
2017-08-21T07:27:59.929Z,55.25
2017-08-21T07:30:27.447Z,55.39
2017-08-21T07:32:55.008Z,55.28
2017-08-21T07:35:22.525Z,55.40
2017-08-21T07:37:50.042Z,55.35
2017-08-21T07:40:17.593Z,55.33
2017-08-21T07:42:45.105Z,55.34
2017-08-21T07:45:12.652Z,55.30
2017-08-21T07:47:40.171Z,55.25
2017-08-21T07:50:07.694Z,55.27
2017-08-21T07:52:35.245Z,55.29
2017-08-21T07:55:02.760Z,55.27
2017-08-21T07:57:30.320Z,55.32
2017-08-21T07:59:57.842Z,55.38
2017-08-21T08:02:25.359Z,55.22
2017-08-21T08:04:52.900Z,55.29
2017-08-21T08:07:20.409Z,55.27
2017-08-21T08:09:47.969Z,55.19
2017-08-21T08:12:15.477Z,55.30
2017-08-21T08:14:43.000Z,55.26
2017-08-21T08:17:10.552Z,55.26
2017-08-21T08:19:38.073Z,55.23
2017-08-21T08:22:05.628Z,55.16
2017-08-21T08:24:33.144Z,55.30
2017-08-21T08:27:00.709Z,55.23
2017-08-21T08:29:28.232Z,55.29
2017-08-21T08:31:55.749Z,55.22
2017-08-21T08:34:23.297Z,55.08
2017-08-21T08:36:50.809Z,55.26
2017-08-21T08:39:18.361Z,55.24
2017-08-21T08:41:45.875Z,55.19
2017-08-21T08:44:13.443Z,55.23
2017-08-21T08:46:40.965Z,55.21
2017-08-21T08:49:08.485Z,55.16
2017-08-21T08:51:36.033Z,55.15
2017-08-21T08:54:03.548Z,55.11
2017-08-21T08:56:31.095Z,55.16
2017-08-21T08:58:58.618Z,55.16
2017-08-21T09:01:26.177Z,55.25
2017-08-21T09:03:53.698Z,55.17
2017-08-21T09:06:21.214Z,55.21
2017-08-21T09:08:48.766Z,55.25
2017-08-21T09:11:16.273Z,55.26
2017-08-21T09:13:43.829Z,55.19
2017-08-21T09:16:11.351Z,55.20
2017-08-21T09:18:38.897Z,55.29
2017-08-21T09:21:06.415Z,55.20
2017-08-21T09:23:33.955Z,55.20
2017-08-21T09:26:01.506Z,55.32
2017-08-21T09:28:29.025Z,55.23
2017-08-21T09:30:56.577Z,55.27
2017-08-21T09:33:24.093Z,55.24
2017-08-21T09:35:51.653Z,55.18
2017-08-21T09:38:19.178Z,55.20
2017-08-21T09:40:46.692Z,55.31
2017-08-21T09:43:14.250Z,55.19
2017-08-21T09:45:41.769Z,55.25
2017-08-21T09:48:09.318Z,55.18
2017-08-21T09:50:36.837Z,55.28
2017-08-21T09:53:04.394Z,55.16
2017-08-21T09:55:31.914Z,55.22
2017-08-21T09:57:59.481Z,55.20
2017-08-21T10:00:27.008Z,55.12
2017-08-21T10:02:54.521Z,55.13
2017-08-21T10:05:22.071Z,55.27
2017-08-21T10:07:49.592Z,55.20
2017-08-21T10:10:17.146Z,55.21
2017-08-21T10:12:44.657Z,55.09
2017-08-21T10:15:12.231Z,55.04
2017-08-21T10:17:39.755Z,55.07
2017-08-21T10:20:07.286Z,55.23
2017-08-21T10:22:34.841Z,55.13
2017-08-21T10:25:02.360Z,55.28
2017-08-21T10:27:29.926Z,55.19
2017-08-21T10:29:57.441Z,55.17
2017-08-21T10:32:24.957Z,55.13
2017-08-21T10:34:52.498Z,55.24
2017-08-21T10:37:20.005Z,55.18
2017-08-21T10:39:47.569Z,55.19
2017-08-21T10:42:15.086Z,55.20
2017-08-21T10:44:42.606Z,55.21
2017-08-21T10:47:10.165Z,55.25
2017-08-21T10:49:37.685Z,55.16
2017-08-21T10:52:05.234Z,55.03
2017-08-21T10:54:32.745Z,55.20
2017-08-21T10:57:00.327Z,55.45
2017-08-21T10:59:27.845Z,55.22
2017-08-21T11:01:55.362Z,55.33
2017-08-21T11:04:22.910Z,55.29
2017-08-21T11:06:50.427Z,55.27
2017-08-21T11:09:17.983Z,55.27
2017-08-21T11:11:45.499Z,55.45
2017-08-21T11:14:13.048Z,55.39
2017-08-21T11:16:40.560Z,55.37
2017-08-21T11:19:08.081Z,55.32
2017-08-21T11:21:35.628Z,55.59
2017-08-21T11:24:03.150Z,55.26
2017-08-21T11:26:30.705Z,55.31
2017-08-21T11:28:58.226Z,55.22
2017-08-21T11:31:25.786Z,55.38
2017-08-21T11:33:53.301Z,55.48
2017-08-21T11:36:20.843Z,55.48
2017-08-21T11:38:48.408Z,55.16
2017-08-21T11:41:15.936Z,55.48
2017-08-21T11:43:43.496Z,55.25
2017-08-21T11:46:11.019Z,55.45
2017-08-21T11:48:38.550Z,55.50
2017-08-21T11:51:06.104Z,55.52
2017-08-21T11:53:33.649Z,55.39
2017-08-21T11:56:01.356Z,55.52
2017-08-21T11:58:28.915Z,55.30
2017-08-21T12:00:56.438Z,55.35
2017-08-21T12:03:24.001Z,55.46
2017-08-21T12:05:51.514Z,55.40
2017-08-21T12:08:19.061Z,55.45
2017-08-21T12:10:46.609Z,55.43
2017-08-21T12:13:14.170Z,55.52
2017-08-21T12:15:41.737Z,55.38
2017-08-21T12:18:09.253Z,55.39
2017-08-21T12:20:36.822Z,55.44
2017-08-21T12:23:04.340Z,55.52
2017-08-21T12:25:31.865Z,55.43
2017-08-21T12:27:59.435Z,55.47
2017-08-21T12:30:26.966Z,55.36
2017-08-21T12:32:54.519Z,55.35
2017-08-21T12:35:22.041Z,55.50
2017-08-21T12:37:49.625Z,55.34
2017-08-21T12:40:17.143Z,55.18
2017-08-21T12:42:44.690Z,55.24
2017-08-21T12:45:12.367Z,55.31
2017-08-21T12:47:39.883Z,55.36
2017-08-21T12:50:07.433Z,55.20
2017-08-21T12:52:34.952Z,55.22
2017-08-21T12:55:02.508Z,55.28
2017-08-21T12:57:30.023Z,55.37
2017-08-21T12:59:57.543Z,55.27
2017-08-21T13:02:25.096Z,55.26
2017-08-21T13:04:52.635Z,55.16
2017-08-21T13:07:20.287Z,55.04
2017-08-21T13:09:47.966Z,55.06
2017-08-21T13:12:15.611Z,55.11
2017-08-21T13:14:43.171Z,55.15
2017-08-21T13:17:10.695Z,54.97
2017-08-21T13:19:38.256Z,55.09
2017-08-21T13:22:05.779Z,54.96
2017-08-21T13:25:05.440Z,55.02
2017-08-21T13:27:33.018Z,54.96
2017-08-21T13:30:00.702Z,55.04
2017-08-21T13:32:28.255Z,55.03
2017-08-21T13:34:55.774Z,55.01
2017-08-21T13:37:23.364Z,54.99
2017-08-21T13:39:50.876Z,55.22
2017-08-21T13:42:18.422Z,54.97
2017-08-21T13:44:46.033Z,54.98
2017-08-21T13:47:13.565Z,54.90
2017-08-21T13:49:41.084Z,54.88
2017-08-21T13:52:08.610Z,54.90
2017-08-21T13:54:36.176Z,54.84
2017-08-21T13:57:03.741Z,54.79
2017-08-21T13:59:31.290Z,54.81
2017-08-21T14:01:58.805Z,54.73
2017-08-21T14:04:26.381Z,54.69
2017-08-21T14:06:53.904Z,54.67
2017-08-21T14:09:21.425Z,54.69
2017-08-21T14:11:48.984Z,54.65
2017-08-21T14:14:16.552Z,54.63
2017-08-21T14:16:44.109Z,54.68
2017-08-21T14:19:11.633Z,54.64
2017-08-21T14:21:39.215Z,54.63
2017-08-21T14:24:06.736Z,54.65
2017-08-21T14:26:34.261Z,54.63
2017-08-21T14:29:01.815Z,54.64
2017-08-21T14:31:29.345Z,54.63
2017-08-21T14:33:56.896Z,54.63
2017-08-21T14:36:24.415Z,54.62
2017-08-21T14:38:51.968Z,54.62
2017-08-21T14:41:19.497Z,54.59
2017-08-21T14:43:47.064Z,54.62
2017-08-21T14:46:14.610Z,54.60
2017-08-21T14:48:42.134Z,54.64
2017-08-21T14:51:09.744Z,54.65
2017-08-21T14:53:37.265Z,54.62
2017-08-21T14:58:31.653Z,54.67
2017-08-21T15:00:59.168Z,54.63
2017-08-21T15:03:26.720Z,54.61
2017-08-21T15:05:54.229Z,54.65
2017-08-21T15:08:21.841Z,54.63
2017-08-21T15:10:49.403Z,54.65
2017-08-21T15:13:17.040Z,54.59
2017-08-21T15:15:44.558Z,54.64
2017-08-21T15:18:12.184Z,54.66
2017-08-21T15:20:39.742Z,54.63
2017-08-21T15:23:07.302Z,54.64
2017-08-21T15:25:34.866Z,54.67
2017-08-21T15:28:02.390Z,54.67
2017-08-21T15:30:29.925Z,54.72
2017-08-21T15:32:57.588Z,54.61
2017-08-21T15:35:25.148Z,54.63
2017-08-21T15:37:52.716Z,54.66
2017-08-21T15:40:20.233Z,54.66
2017-08-21T15:42:47.827Z,54.75
2017-08-21T15:45:15.389Z,54.65
2017-08-21T15:47:42.912Z,54.60
2017-08-21T15:50:10.470Z,54.64
2017-08-21T15:52:38.066Z,54.50
2017-08-21T15:55:05.728Z,54.53
2017-08-21T15:57:33.284Z,54.58
2017-08-21T16:00:00.819Z,54.63
2017-08-21T16:02:28.410Z,54.67
2017-08-21T16:04:55.966Z,54.69
2017-08-21T16:07:23.537Z,55.14
2017-08-21T16:09:51.111Z,54.97
2017-08-21T16:12:18.707Z,55.03
2017-08-21T16:14:46.265Z,54.97
2017-08-21T16:17:14.558Z,54.81
2017-08-21T16:19:42.143Z,54.87
2017-08-21T16:22:09.731Z,54.86
2017-08-21T16:24:37.398Z,54.85
2017-08-21T16:27:04.914Z,54.85
2017-08-21T16:29:32.479Z,54.86
2017-08-21T16:32:00.005Z,54.88
2017-08-21T16:34:27.525Z,54.91
2017-08-21T16:36:55.088Z,55.01
2017-08-21T16:39:22.619Z,55.00
2017-08-21T16:41:50.189Z,55.02
2017-08-21T16:44:17.704Z,55.03
2017-08-21T16:46:45.285Z,55.10
2017-08-21T16:49:12.847Z,55.28
2017-08-21T16:51:40.393Z,55.26
2017-08-21T16:54:07.976Z,55.31
2017-08-21T16:56:35.556Z,55.31
2017-08-21T16:59:03.122Z,55.28
2017-08-21T17:01:30.637Z,55.29
2017-08-21T17:03:58.157Z,55.38
2017-08-21T17:06:25.724Z,55.46
2017-08-21T17:08:53.263Z,55.64
2017-08-21T17:11:20.829Z,56.07
2017-08-21T17:13:48.380Z,55.81
2017-08-21T17:16:16.151Z,55.90
2017-08-21T17:18:43.673Z,55.90
2017-08-21T17:21:11.197Z,55.64
2017-08-21T17:23:38.747Z,55.76
2017-08-21T17:26:06.268Z,55.89
2017-08-21T17:28:33.842Z,56.04
2017-08-21T17:31:01.364Z,55.66
2017-08-21T17:33:28.926Z,55.85
2017-08-21T17:35:56.520Z,55.86
2017-08-21T17:38:24.037Z,55.84
2017-08-21T17:40:51.639Z,55.75
2017-08-21T17:43:19.151Z,55.79
2017-08-21T17:45:46.708Z,55.88
2017-08-21T17:48:14.287Z,55.96
2017-08-21T17:50:41.858Z,55.94
2017-08-21T17:53:09.381Z,55.95
2017-08-21T17:55:36.901Z,55.94
2017-08-21T17:58:04.455Z,55.94
2017-08-21T18:00:32.927Z,55.88
2017-08-21T18:03:00.481Z,55.93
2017-08-21T18:05:27.996Z,55.93
2017-08-21T18:07:55.574Z,55.98
2017-08-21T18:10:23.145Z,55.97
2017-08-21T18:12:50.704Z,55.95
2017-08-21T18:15:18.258Z,55.99
2017-08-21T18:17:45.786Z,56.11
2017-08-21T18:20:13.384Z,56.07
2017-08-21T18:22:40.921Z,56.01
2017-08-21T18:25:08.474Z,56.06
2017-08-21T18:27:35.991Z,56.11
2017-08-21T18:30:03.515Z,56.13
2017-08-21T18:32:31.075Z,55.98
2017-08-21T18:34:58.602Z,56.01
2017-08-21T18:37:26.198Z,55.93
2017-08-21T18:39:53.758Z,55.96
2017-08-21T18:42:21.284Z,55.93
2017-08-21T18:44:48.844Z,55.95
2017-08-21T18:47:16.360Z,55.95
2017-08-21T18:49:43.915Z,56.05
2017-08-21T18:52:11.456Z,56.01
2017-08-21T18:54:39.013Z,56.09
2017-08-21T18:57:06.535Z,56.15
2017-08-21T18:59:34.140Z,56.10
2017-08-21T19:02:01.702Z,56.32
2017-08-21T19:04:29.222Z,56.17
2017-08-21T19:06:56.765Z,56.17
2017-08-21T19:09:24.309Z,56.15
2017-08-21T19:11:51.875Z,56.30
2017-08-21T19:14:19.394Z,56.35
2017-08-21T19:16:46.920Z,56.67
2017-08-21T19:19:14.484Z,56.64
2017-08-21T19:21:42.003Z,56.67
2017-08-21T19:24:09.628Z,56.56
2017-08-21T19:26:37.149Z,56.87
2017-08-21T19:29:04.675Z,56.47
2017-08-21T19:31:32.248Z,56.47
2017-08-21T19:34:01.690Z,56.52
2017-08-21T19:36:29.577Z,56.56
2017-08-21T19:38:57.542Z,56.69
2017-08-21T19:41:25.248Z,56.56
2017-08-21T19:43:53.188Z,56.54
2017-08-21T19:46:20.738Z,56.24
2017-08-21T19:48:48.305Z,56.52
2017-08-21T19:51:15.890Z,56.22
2017-08-21T19:53:43.415Z,56.30
2017-08-21T19:56:10.961Z,56.28
2017-08-21T19:58:38.576Z,56.26
2017-08-21T20:01:06.149Z,56.28
2017-08-21T20:03:33.658Z,56.21
2017-08-21T20:06:01.174Z,56.27
2017-08-21T20:08:28.721Z,56.24
2017-08-21T20:10:56.243Z,56.19
2017-08-21T20:13:23.835Z,56.24
2017-08-21T20:15:51.357Z,56.23
2017-08-21T20:18:18.872Z,56.13
2017-08-21T20:20:46.434Z,56.14
2017-08-21T20:23:13.944Z,56.24
2017-08-21T20:25:41.508Z,56.39
2017-08-21T20:28:09.019Z,56.29
2017-08-21T20:30:36.538Z,56.53
2017-08-21T20:33:04.094Z,56.35
2017-08-21T20:35:31.768Z,56.29
2017-08-21T20:37:59.818Z,56.25
2017-08-21T20:40:27.381Z,56.27
2017-08-21T20:42:55.164Z,56.21
2017-08-21T20:45:23.236Z,56.28
2017-08-21T20:47:51.097Z,56.14
2017-08-21T20:50:19.192Z,56.17
2017-08-21T20:52:46.840Z,56.20
2017-08-21T20:55:14.409Z,56.21
2017-08-21T20:57:42.059Z,56.17
2017-08-21T21:00:09.606Z,56.16
2017-08-21T21:02:37.170Z,56.12
2017-08-21T21:05:04.737Z,56.11
2017-08-21T21:07:32.296Z,56.10
2017-08-21T21:09:59.959Z,56.07
2017-08-21T21:12:27.485Z,56.11
2017-08-21T21:14:55.062Z,56.06
2017-08-21T21:17:22.847Z,56.42
2017-08-21T21:19:50.362Z,55.62
2017-08-21T21:22:17.915Z,55.20
2017-08-21T21:24:45.447Z,54.46
2017-08-21T21:27:13.029Z,54.05
2017-08-21T21:29:40.647Z,53.74
2017-08-21T21:32:08.251Z,53.47
2017-08-21T21:34:35.808Z,53.40
2017-08-21T21:37:03.322Z,52.85
2017-08-21T21:39:30.924Z,52.70
2017-08-21T21:41:58.449Z,52.55
2017-08-21T21:44:26.000Z,52.67
2017-08-21T21:46:53.537Z,52.36
2017-08-21T21:49:21.109Z,52.59
2017-08-21T21:51:48.631Z,52.54
2017-08-21T21:54:16.150Z,52.62
2017-08-21T21:56:43.704Z,52.85
2017-08-21T21:59:11.228Z,52.47
2017-08-21T22:01:38.794Z,52.34
2017-08-21T22:04:06.402Z,52.54
2017-08-21T22:06:33.958Z,52.35
2017-08-21T22:09:01.474Z,52.19
2017-08-21T22:11:28.994Z,52.19
2017-08-21T22:13:56.556Z,52.05
2017-08-21T22:16:24.088Z,52.48
2017-08-21T22:18:51.649Z,52.22
2017-08-21T22:21:19.177Z,52.29
2017-08-21T22:23:46.721Z,52.31
2017-08-21T22:26:14.244Z,52.16
2017-08-21T22:28:41.802Z,52.00
2017-08-21T22:31:09.324Z,52.10
2017-08-21T22:33:36.885Z,52.24
2017-08-21T22:36:04.414Z,52.33
2017-08-21T22:38:31.952Z,52.53
2017-08-21T22:40:59.514Z,52.65
2017-08-21T22:43:27.029Z,52.44
2017-08-21T22:45:54.601Z,52.63
2017-08-21T22:48:22.127Z,52.70
2017-08-21T22:50:49.686Z,52.80
2017-08-21T22:53:17.200Z,53.03
2017-08-21T22:55:44.762Z,53.22
2017-08-21T22:58:12.280Z,53.18
2017-08-21T23:00:39.812Z,53.20
2017-08-21T23:03:07.371Z,53.08
2017-08-21T23:05:34.886Z,53.10
2017-08-21T23:08:02.438Z,53.13
2017-08-21T23:10:29.957Z,53.21
2017-08-21T23:12:57.507Z,53.33
2017-08-21T23:15:25.021Z,53.22
2017-08-21T23:17:52.540Z,53.07
2017-08-21T23:20:20.094Z,53.10
2017-08-21T23:22:47.617Z,53.05
2017-08-21T23:25:15.172Z,52.83
2017-08-21T23:27:42.690Z,52.46
2017-08-21T23:30:10.242Z,52.70
2017-08-21T23:32:37.761Z,52.84
2017-08-21T23:35:05.338Z,52.65
2017-08-21T23:37:32.865Z,52.49
2017-08-21T23:40:00.383Z,52.48
2017-08-21T23:42:27.938Z,52.63
2017-08-21T23:44:55.524Z,52.44
2017-08-21T23:47:23.083Z,52.54
2017-08-21T23:49:50.598Z,52.54
2017-08-21T23:52:18.172Z,52.73
2017-08-21T23:54:45.717Z,52.95
2017-08-21T23:57:13.320Z,53.14
2017-08-21T23:59:40.865Z,52.92
